Time;durP1;ratioP1;P1;durP2;ratioP2;P2;SDS_P1;SDS_P2;PMS_P1;PMS_P2;Temp;Humidity;BMP_temperature;BMP_pressure;BME280_temperature;BME280_humidity;BME280_pressure;Samples;Min_cycle;Max_cycle;Signal;HPM_P1;HPM_P2
2022/04/29 00:01:58;;;;;;;;;;;9.70;1.00;;;;;;10247127;28;85102;-47
2022/04/29 00:06:58;;;;;;;;;;;9.60;1.00;;;;;;10245377;28;84141;-47
2022/04/29 00:12:02;;;;;;;;;;;9.50;1.00;;;;;;10228167;28;84876;-46
2022/04/29 00:17:03;;;;;;;;;;;9.40;1.00;;;;;;10187502;28;86870;-50
2022/04/29 00:22:03;;;;;;;;;;;9.40;1.00;;;;;;10206713;28;86061;-47
2022/04/29 00:27:04;;;;;;;;;;;9.40;1.00;;;;;;10204961;28;84146;-47
2022/04/29 00:32:05;;;;;;;;;;;9.20;1.00;;;;;;10188243;28;85890;-47
2022/04/29 00:37:06;;;;;;;;;;;9.10;1.00;;;;;;10224940;28;85770;-48
2022/04/29 00:42:13;;;;;;;;;;;9.10;1.00;;;;;;10228360;28;84942;-49
2022/04/29 00:47:15;;;;;;;;;;;9.00;1.00;;;;;;10226730;28;85144;-48
2022/04/29 00:52:18;;;;;;;;;;;8.90;1.00;;;;;;10244026;28;84754;-49
2022/04/29 00:57:22;;;;;;;;;;;8.90;1.00;;;;;;10243583;28;84779;-51
2022/04/29 01:02:23;;;;;;;;;;;8.90;1.00;;;;;;10234402;28;87122;-48
2022/04/29 01:07:23;;;;;;;;;;;8.90;1.00;;;;;;10249342;28;84042;-47
2022/04/29 01:12:25;;;;;;;;;;;8.80;1.00;;;;;;10233562;28;86506;-49
2022/04/29 01:17:26;;;;;;;;;;;8.80;1.00;;;;;;10250669;28;85247;-48
2022/04/29 01:22:26;;;;;;;;;;;8.70;1.00;;;;;;10227376;28;85202;-46
2022/04/29 01:27:27;;;;;;;;;;;8.60;1.00;;;;;;10194009;28;86898;-46
2022/04/29 01:32:29;;;;;;;;;;;8.60;1.00;;;;;;10193913;28;85766;-54
2022/04/29 01:37:30;;;;;;;;;;;8.50;1.00;;;;;;10237357;23;86489;-45
2022/04/29 01:42:31;;;;;;;;;;;8.50;1.00;;;;;;10231947;28;86858;-47
2022/04/29 01:47:31;;;;;;;;;;;8.40;1.00;;;;;;10231494;28;86829;-45
2022/04/29 01:52:55;;;;;;;;;;;8.40;1.00;;;;;;10250402;28;84793;-46
2022/04/29 01:57:59;;;;;;;;;;;8.50;1.00;;;;;;10249141;28;84256;-46
2022/04/29 02:02:59;;;;;;;;;;;8.40;1.00;;;;;;10231612;28;86186;-45
2022/04/29 02:08:00;;;;;;;;;;;8.20;1.00;;;;;;10231025;28;85965;-45
2022/04/29 02:13:02;;;;;;;;;;;8.10;1.00;;;;;;10230772;28;85819;-46
2022/04/29 02:18:26;;;;;;;;;;;8.00;1.00;;;;;;10247273;28;85631;-43
2022/04/29 02:23:26;;;;;;;;;;;8.00;1.00;;;;;;10231187;28;86888;-45
2022/04/29 02:28:31;;;;;;;;;;;8.00;4.50;;;;;;10230276;28;86093;-48
2022/04/29 02:33:32;;;;;;;;;;;7.90;7.30;;;;;;10230534;28;85897;-47
2022/04/29 02:38:34;;;;;;;;;;;7.80;20.00;;;;;;10229756;28;84946;-48
2022/04/29 02:43:37;;;;;;;;;;;7.80;24.30;;;;;;10230371;28;86826;-46
2022/04/29 02:48:38;;;;;;;;;;;7.80;35.30;;;;;;10229453;28;85964;-46
2022/04/29 02:53:39;;;;;;;;;;;7.70;52.40;;;;;;10247306;28;84944;-46
2022/04/29 02:58:40;;;;;;;;;;;7.70;65.20;;;;;;10247384;28;84731;-48
2022/04/29 03:03:40;;;;;;;;;;;7.60;80.70;;;;;;10230183;28;86806;-46
2022/04/29 03:08:41;;;;;;;;;;;7.60;94.30;;;;;;10246614;28;84769;-49
2022/04/29 03:13:43;;;;;;;;;;;7.60;94.80;;;;;;10234047;28;86473;-45
2022/04/29 03:18:46;;;;;;;;;;;7.60;98.10;;;;;;10261808;28;86933;-50
2022/04/29 03:23:47;;;;;;;;;;;7.60;99.90;;;;;;10246231;28;84784;-47
2022/04/29 03:28:48;;;;;;;;;;;7.50;99.90;;;;;;10218899;28;86486;-46
2022/04/29 03:33:48;;;;;;;;;;;7.60;99.90;;;;;;10246827;28;84249;-45
2022/04/29 03:38:49;;;;;;;;;;;7.60;99.90;;;;;;10260010;28;85698;-48
2022/04/29 03:43:49;;;;;;;;;;;7.60;99.90;;;;;;10229341;28;85729;-47
2022/04/29 03:54:21;;;;;;;;;;;7.60;99.90;;;;;;10239324;28;85951;-46
2022/04/29 03:59:26;;;;;;;;;;;7.50;99.90;;;;;;10223667;28;85789;-46
2022/04/29 04:04:27;;;;;;;;;;;7.50;99.90;;;;;;10214371;28;85977;-46
2022/04/29 04:09:30;;;;;;;;;;;7.40;99.90;;;;;;10231822;28;86684;-47
2022/04/29 04:14:37;;;;;;;;;;;7.30;99.90;;;;;;10225303;28;86481;-49
2022/04/29 04:19:37;;;;;;;;;;;7.20;99.90;;;;;;10226603;28;85767;-47
2022/04/29 04:24:38;;;;;;;;;;;7.20;99.90;;;;;;10226910;28;86706;-46
2022/04/29 04:29:39;;;;;;;;;;;7.30;99.90;;;;;;10244151;28;84424;-44
2022/04/29 04:34:53;;;;;;;;;;;7.20;99.90;;;;;;10214295;28;85932;-48
2022/04/29 04:39:54;;;;;;;;;;;7.20;99.90;;;;;;10232935;28;86794;-45
2022/04/29 04:44:56;;;;;;;;;;;7.20;99.90;;;;;;10232844;28;86621;-45
2022/04/29 04:49:58;;;;;;;;;;;7.30;99.90;;;;;;10232576;28;84958;-46
2022/04/29 04:55:05;;;;;;;;;;;7.30;99.90;;;;;;10232277;28;85883;-48
2022/04/29 05:00:07;;;;;;;;;;;7.40;99.90;;;;;;10233679;28;86542;-46
2022/04/29 05:05:40;;;;;;;;;;;7.40;99.90;;;;;;10218725;28;84183;-43
2022/04/29 05:10:47;;;;;;;;;;;7.50;99.90;;;;;;10230138;28;87298;-45
2022/04/29 05:15:49;;;;;;;;;;;7.60;99.90;;;;;;10231256;28;85571;-44
2022/04/29 05:21:02;;;;;;;;;;;7.60;99.90;;;;;;10214501;28;86964;-45
2022/04/29 05:26:03;;;;;;;;;;;7.70;99.90;;;;;;10223309;28;86926;-46
2022/04/29 05:31:23;;;;;;;;;;;7.70;99.90;;;;;;10245482;28;85405;-46
2022/04/29 05:36:59;;;;;;;;;;;7.70;99.90;;;;;;10246867;28;84770;-46
2022/04/29 05:42:14;;;;;;;;;;;7.80;99.90;;;;;;10230155;28;85934;-47
2022/04/29 05:47:15;;;;;;;;;;;7.90;99.90;;;;;;10246339;28;84210;-49
2022/04/29 05:52:16;;;;;;;;;;;8.00;99.90;;;;;;10229136;28;85917;-45
2022/04/29 05:57:20;;;;;;;;;;;8.00;99.90;;;;;;10244551;28;85997;-47
2022/04/29 06:02:23;;;;;;;;;;;8.20;99.90;;;;;;10238238;28;86739;-46
2022/04/29 06:07:31;;;;;;;;;;;8.50;99.90;;;;;;10210395;28;84975;-52
2022/04/29 06:12:36;;;;;;;;;;;8.80;48.30;;;;;;10191888;28;86708;-53
2022/04/29 06:17:41;;;;;;;;;;;9.00;11.70;;;;;;10219127;28;85944;-56
2022/04/29 06:23:00;;;;;;;;;;;9.60;1.00;;;;;;10247643;28;84077;-52
2022/04/29 06:28:05;;;;;;;;;;;9.80;1.00;;;;;;10230660;28;86721;-56
2022/04/29 06:33:07;;;;;;;;;;;10.00;1.00;;;;;;10229761;28;86642;-55
2022/04/29 06:38:15;;;;;;;;;;;10.30;1.00;;;;;;10189864;28;86711;-54
2022/04/29 06:43:36;;;;;;;;;;;10.40;1.00;;;;;;10208140;28;85407;-51
2022/04/29 06:49:14;;;;;;;;;;;10.60;1.00;;;;;;10207516;28;85648;-50
2022/04/29 06:54:30;;;;;;;;;;;10.80;1.00;;;;;;10247493;28;84784;-55
2022/04/29 06:59:39;;;;;;;;;;;10.80;1.00;;;;;;10214330;28;86952;-56
2022/04/29 07:04:39;;;;;;;;;;;10.90;1.00;;;;;;10248561;28;84897;-55
2022/04/29 07:09:40;;;;;;;;;;;10.90;1.00;;;;;;10247873;28;84261;-60
2022/04/29 07:15:13;;;;;;;;;;;11.00;1.00;;;;;;10247893;28;84729;-54
2022/04/29 07:20:15;;;;;;;;;;;11.20;1.00;;;;;;10247944;28;84912;-55
2022/04/29 07:25:15;;;;;;;;;;;11.20;1.00;;;;;;10230133;28;86952;-44
2022/04/29 07:30:16;;;;;;;;;;;11.40;1.00;;;;;;10229138;28;84978;-53
2022/04/29 07:46:17;;;;;;;;;;;12.40;1.00;;;;;;10215941;28;86748;-56
2022/04/29 07:51:36;;;;;;;;;;;13.00;1.00;;;;;;10247296;28;84434;-55
2022/04/29 07:56:37;;;;;;;;;;;13.70;99.90;;;;;;10227971;28;86733;-53
2022/04/29 08:01:43;;;;;;;;;;;14.40;99.90;;;;;;10230684;28;86659;-58
2022/04/29 08:06:45;;;;;;;;;;;14.70;99.30;;;;;;10229329;28;85585;-59
2022/04/29 08:11:46;;;;;;;;;;;14.30;88.20;;;;;;10236687;28;86095;-58
2022/04/29 08:17:05;;;;;;;;;;;14.00;99.90;;;;;;10237366;28;84636;-55
2022/04/29 08:22:12;;;;;;;;;;;13.90;99.90;;;;;;10235351;28;85781;-58
2022/04/29 08:27:13;;;;;;;;;;;13.60;99.90;;;;;;10234655;28;85912;-63
2022/04/29 08:32:16;;;;;;;;;;;13.60;99.90;;;;;;10218580;28;85874;-55
2022/04/29 08:37:19;;;;;;;;;;;13.70;99.90;;;;;;10234072;28;86588;-45
2022/04/29 08:42:23;;;;;;;;;;;13.60;99.90;;;;;;10217150;28;86809;-54
2022/04/29 08:47:26;;;;;;;;;;;13.40;99.90;;;;;;10218145;28;86045;-55
2022/04/29 08:52:42;;;;;;;;;;;13.40;99.90;;;;;;10234539;28;86894;-55
2022/04/29 09:03:02;;;;;;;;;;;13.00;1.00;;;;;;10233683;28;85811;-56
2022/04/29 09:08:04;;;;;;;;;;;12.90;1.00;;;;;;10242923;28;84300;-58
2022/04/29 09:13:11;;;;;;;;;;;12.80;1.00;;;;;;10246321;28;85870;-54
2022/04/29 09:18:11;;;;;;;;;;;12.90;1.00;;;;;;10232466;28;85314;-58
2022/04/29 09:23:14;;;;;;;;;;;12.90;99.90;;;;;;10211951;28;88283;-58
2022/04/29 09:28:45;;;;;;;;;;;12.90;99.90;;;;;;10209892;28;85480;-56
2022/04/29 09:33:52;;;;;;;;;;;12.90;99.90;;;;;;10200460;28;85982;-57
2022/04/29 09:44:27;;;;;;;;;;;13.40;99.90;;;;;;10210196;28;85028;-59
2022/04/29 09:49:28;;;;;;;;;;;13.30;99.90;;;;;;10209166;28;84128;-51
2022/04/29 09:54:37;;;;;;;;;;;13.70;99.90;;;;;;10222754;28;87092;-60
2022/04/29 09:59:37;;;;;;;;;;;13.80;99.90;;;;;;10203442;28;85951;-48
2022/04/29 10:04:40;;;;;;;;;;;14.50;99.90;;;;;;10191715;28;84336;-46
2022/04/29 10:09:44;;;;;;;;;;;15.00;99.90;;;;;;10175233;28;86855;-45
2022/04/29 10:14:45;;;;;;;;;;;15.60;90.20;;;;;;10210265;28;84213;-46
2022/04/29 10:25:27;;;;;;;;;;;16.10;1.00;;;;;;10208451;28;84099;-47
2022/04/29 10:30:28;;;;;;;;;;;15.80;1.00;;;;;;10243404;28;84376;-46
2022/04/29 10:35:58;;;;;;;;;;;16.20;1.00;;;;;;10243849;28;84954;-46
2022/04/29 10:41:18;;;;;;;;;;;16.20;1.00;;;;;;10246300;28;84906;-49
2022/04/29 10:46:20;;;;;;;;;;;16.50;1.00;;;;;;10247780;28;84901;-47
2022/04/29 10:51:43;;;;;;;;;;;16.90;1.00;;;;;;10224165;28;86025;-46
2022/04/29 10:56:59;;;;;;;;;;;17.20;1.00;;;;;;10247121;28;84023;-47
2022/04/29 11:02:07;;;;;;;;;;;17.20;1.00;;;;;;10248278;28;84848;-46
2022/04/29 11:07:28;;;;;;;;;;;17.00;1.00;;;;;;10246844;28;84954;-48
2022/04/29 11:12:32;;;;;;;;;;;17.60;1.00;;;;;;10248242;28;84911;-47
2022/04/29 11:18:11;;;;;;;;;;;18.00;99.90;;;;;;10218252;28;85134;-46
2022/04/29 11:28:31;;;;;;;;;;;17.60;99.90;;;;;;10246359;28;84157;-50
2022/04/29 11:33:50;;;;;;;;;;;17.50;99.90;;;;;;10244264;28;84480;-49
2022/04/29 11:38:51;;;;;;;;;;;17.00;1.00;;;;;;10233740;28;84249;-47
2022/04/29 11:43:51;;;;;;;;;;;16.60;1.00;;;;;;10243342;28;86483;-47
2022/04/29 11:48:54;;;;;;;;;;;16.50;99.90;;;;;;10240758;28;85084;-52
2022/04/29 11:54:01;;;;;;;;;;;16.30;99.90;;;;;;10246633;28;84019;-54
2022/04/29 11:59:06;;;;;;;;;;;16.50;1.00;;;;;;10228705;28;85957;-48
2022/04/29 12:04:06;;;;;;;;;;;16.50;99.90;;;;;;10245928;28;86538;-48
2022/04/29 12:09:08;;;;;;;;;;;16.80;1.00;;;;;;10245909;28;84904;-48
2022/04/29 12:14:16;;;;;;;;;;;17.30;1.00;;;;;;10245696;28;84240;-51
2022/04/29 12:19:17;;;;;;;;;;;17.30;99.90;;;;;;10245754;28;84737;-48
2022/04/29 12:24:17;;;;;;;;;;;17.80;99.90;;;;;;10245769;28;84770;-48
2022/04/29 12:29:18;;;;;;;;;;;18.70;1.00;;;;;;10244556;28;84136;-49
2022/04/29 12:39:44;;;;;;;;;;;19.40;1.00;;;;;;10227285;28;85798;-48
2022/04/29 12:50:47;;;;;;;;;;;18.70;1.00;;;;;;10226757;28;86565;-47
2022/04/29 12:55:51;;;;;;;;;;;18.40;1.00;;;;;;10198700;28;86113;-48
2022/04/29 13:00:55;;;;;;;;;;;18.60;1.00;;;;;;10233586;28;86741;-47
2022/04/29 13:05:57;;;;;;;;;;;18.80;1.00;;;;;;10232722;28;85181;-46
2022/04/29 13:10:58;;;;;;;;;;;18.60;99.90;;;;;;10251096;28;84937;-49
2022/04/29 13:15:59;;;;;;;;;;;18.60;99.90;;;;;;10231981;28;84996;-48
2022/04/29 13:21:08;;;;;;;;;;;19.00;99.90;;;;;;10215657;28;85929;-47
2022/04/29 13:26:11;;;;;;;;;;;19.10;99.90;;;;;;10191741;28;85954;-49
2022/04/29 13:31:12;;;;;;;;;;;19.50;99.90;;;;;;10215300;28;84069;-46
2022/04/29 13:36:14;;;;;;;;;;;19.30;27.30;;;;;;10232832;22;86531;-51
2022/04/29 13:41:16;;;;;;;;;;;19.00;1.00;;;;;;10250337;28;84131;-52
2022/04/29 13:46:16;;;;;;;;;;;18.90;43.50;;;;;;10243334;28;84273;-49
2022/04/29 13:51:17;;;;;;;;;;;18.90;99.90;;;;;;10253664;28;85243;-50
2022/04/29 13:56:17;;;;;;;;;;;18.40;8.90;;;;;;10245073;28;85149;-52
2022/04/29 14:01:18;;;;;;;;;;;18.20;99.90;;;;;;10249509;28;84313;-56
2022/04/29 14:06:19;;;;;;;;;;;17.90;99.90;;;;;;10247595;28;84687;-48
2022/04/29 14:11:20;;;;;;;;;;;17.70;1.00;;;;;;10248260;28;92628;-50
2022/04/29 14:16:20;;;;;;;;;;;17.20;1.00;;;;;;10247189;28;84190;-54
2022/04/29 14:21:21;;;;;;;;;;;17.00;1.00;;;;;;10245408;28;84962;-51
2022/04/29 14:26:22;;;;;;;;;;;16.80;1.00;;;;;;10245573;28;84759;-51
2022/04/29 14:31:24;;;;;;;;;;;16.60;1.00;;;;;;10245429;28;84857;-55
2022/04/29 14:36:26;;;;;;;;;;;16.70;1.00;;;;;;10246091;28;85355;-55
2022/04/29 14:41:27;;;;;;;;;;;16.70;1.00;;;;;;10255417;28;84940;-52
2022/04/29 14:46:29;;;;;;;;;;;16.40;1.00;;;;;;10241475;28;84872;-53
2022/04/29 14:51:30;;;;;;;;;;;16.30;1.00;;;;;;10250129;28;84869;-64
2022/04/29 14:56:30;;;;;;;;;;;16.20;1.00;;;;;;10230222;28;84113;-58
2022/04/29 15:01:31;;;;;;;;;;;16.10;99.90;;;;;;10245926;28;84214;-58
2022/04/29 15:06:32;;;;;;;;;;;16.10;99.90;;;;;;10246333;28;84180;-60
2022/04/29 15:16:51;;;;;;;;;;;16.20;1.00;;;;;;10245543;28;84019;-56
2022/04/29 15:21:52;;;;;;;;;;;16.20;1.00;;;;;;10247264;28;84999;-57
2022/04/29 15:26:52;;;;;;;;;;;16.10;55.40;;;;;;10245363;28;84761;-58
2022/04/29 15:31:53;;;;;;;;;;;16.10;1.00;;;;;;10247370;28;84288;-57
2022/04/29 15:36:55;;;;;;;;;;;16.00;1.00;;;;;;10244992;28;84719;-59
2022/04/29 15:41:58;;;;;;;;;;;16.00;1.00;;;;;;10246140;28;84187;-59
2022/04/29 15:46:58;;;;;;;;;;;15.90;1.00;;;;;;10245481;28;84223;-58
2022/04/29 15:51:59;;;;;;;;;;;15.80;1.00;;;;;;10246664;28;84867;-57
2022/04/29 15:57:00;;;;;;;;;;;15.80;3.70;;;;;;10244772;28;84023;-59
2022/04/29 16:02:01;;;;;;;;;;;15.80;99.90;;;;;;10228898;28;84118;-56
2022/04/29 16:07:01;;;;;;;;;;;15.70;99.90;;;;;;10245382;28;85379;-58
2022/04/29 16:12:02;;;;;;;;;;;15.80;99.90;;;;;;10246305;28;84742;-56
2022/04/29 16:17:03;;;;;;;;;;;15.80;7.90;;;;;;10227161;28;85005;-57
2022/04/29 16:22:03;;;;;;;;;;;16.00;99.90;;;;;;10245796;28;84367;-53
2022/04/29 16:27:04;;;;;;;;;;;16.00;1.00;;;;;;10244461;28;84736;-57
2022/04/29 16:32:08;;;;;;;;;;;16.10;1.00;;;;;;10252548;28;84783;-55
2022/04/29 16:37:10;;;;;;;;;;;16.10;1.00;;;;;;10248930;28;84213;-57
2022/04/29 16:42:11;;;;;;;;;;;15.80;1.00;;;;;;10252407;28;86745;-58
2022/04/29 16:47:11;;;;;;;;;;;15.70;1.00;;;;;;10250430;28;84048;-56
2022/04/29 16:52:12;;;;;;;;;;;15.80;1.00;;;;;;10251441;28;84308;-56
2022/04/29 17:02:32;;;;;;;;;;;15.50;1.00;;;;;;10233660;28;86080;-57
2022/04/29 17:07:33;;;;;;;;;;;15.30;1.00;;;;;;10249946;28;85258;-56
2022/04/29 17:12:34;;;;;;;;;;;15.10;99.90;;;;;;10250740;28;84817;-54
2022/04/29 17:17:35;;;;;;;;;;;15.10;1.00;;;;;;10250490;28;84417;-55
2022/04/29 17:22:35;;;;;;;;;;;15.10;1.00;;;;;;10233009;28;84162;-53
2022/04/29 17:27:38;;;;;;;;;;;14.90;28.80;;;;;;10249388;28;84938;-52
2022/04/29 17:32:38;;;;;;;;;;;14.90;99.90;;;;;;10250531;28;85042;-56
2022/04/29 17:37:38;;;;;;;;;;;14.80;99.90;;;;;;10248161;28;84205;-57
2022/04/29 17:42:39;;;;;;;;;;;14.60;1.00;;;;;;10248659;28;84948;-55
2022/04/29 17:47:40;;;;;;;;;;;14.50;1.00;;;;;;10249385;28;84013;-53
2022/04/29 17:52:41;;;;;;;;;;;14.40;1.00;;;;;;10249946;28;84458;-57
2022/04/29 17:57:43;;;;;;;;;;;14.30;1.00;;;;;;10248660;28;84900;-55
2022/04/29 18:02:45;;;;;;;;;;;14.20;1.00;;;;;;10245947;28;84253;-52
2022/04/29 18:07:45;;;;;;;;;;;14.10;93.10;;;;;;10221372;28;85522;-57
2022/04/29 18:12:46;;;;;;;;;;;14.00;99.90;;;;;;10231956;28;86016;-55
2022/04/29 18:17:48;;;;;;;;;;;13.60;99.90;;;;;;10240407;28;84177;-51
2022/04/29 18:22:49;;;;;;;;;;;13.40;1.00;;;;;;10247743;28;85001;-55
2022/04/29 18:27:50;;;;;;;;;;;13.10;1.00;;;;;;10225898;28;84500;-54
2022/04/29 18:32:51;;;;;;;;;;;13.00;1.00;;;;;;10248892;28;84213;-54
2022/04/29 18:37:52;;;;;;;;;;;12.80;1.00;;;;;;10246452;28;85851;-58
2022/04/29 18:42:53;;;;;;;;;;;12.70;1.00;;;;;;10255776;28;84125;-58
2022/04/29 18:47:53;;;;;;;;;;;12.60;1.00;;;;;;10248796;28;84930;-56
2022/04/29 18:52:54;;;;;;;;;;;12.40;1.00;;;;;;10232544;28;84026;-56
2022/04/29 18:57:55;;;;;;;;;;;12.30;1.00;;;;;;10233151;28;85867;-52
2022/04/29 19:02:55;;;;;;;;;;;12.30;1.00;;;;;;10251233;28;84158;-50
2022/04/29 19:07:56;;;;;;;;;;;12.10;1.00;;;;;;10250131;28;87179;-50
2022/04/29 19:12:56;;;;;;;;;;;12.00;1.00;;;;;;10254328;28;84639;-52
2022/04/29 19:17:57;;;;;;;;;;;11.90;1.00;;;;;;10248532;28;88605;-51
2022/04/29 19:22:57;;;;;;;;;;;11.90;1.00;;;;;;10252459;28;84158;-52
2022/04/29 19:27:58;;;;;;;;;;;11.90;1.00;;;;;;10245936;28;84828;-54
2022/04/29 19:32:59;;;;;;;;;;;11.70;1.00;;;;;;10247541;28;84589;-54
2022/04/29 19:37:59;;;;;;;;;;;11.70;1.00;;;;;;10280164;22;84287;-47
2022/04/29 19:43:00;;;;;;;;;;;11.60;1.00;;;;;;10263554;28;85262;-45
2022/04/29 19:48:00;;;;;;;;;;;11.50;1.00;;;;;;10249001;28;84910;-45
2022/04/29 19:53:01;;;;;;;;;;;11.50;1.00;;;;;;10243397;28;84673;-48
2022/04/29 20:08:40;;;;;;;;;;;11.40;99.90;;;;;;10247543;28;84228;-47
2022/04/29 20:13:41;;;;;;;;;;;11.30;99.90;;;;;;10250131;28;85299;-47
2022/04/29 20:18:41;;;;;;;;;;;11.40;99.90;;;;;;10248305;28;84439;-47
2022/04/29 20:23:42;;;;;;;;;;;11.20;99.90;;;;;;10247826;28;84943;-45
2022/04/29 20:28:43;;;;;;;;;;;11.30;99.90;;;;;;10249148;28;84193;-46
2022/04/29 20:33:44;;;;;;;;;;;11.20;99.90;;;;;;10248847;28;84157;-45
2022/04/29 20:38:44;;;;;;;;;;;11.10;99.90;;;;;;10240702;28;84499;-46
2022/04/29 20:43:57;;;;;;;;;;;11.00;99.90;;;;;;10247629;28;84354;-49
2022/04/29 20:48:58;;;;;;;;;;;11.00;99.90;;;;;;10247638;28;84950;-45
2022/04/29 20:53:59;;;;;;;;;;;10.80;1.00;;;;;;10242483;28;84020;-48
2022/04/29 20:59:00;;;;;;;;;;;10.80;1.00;;;;;;10239925;28;84155;-47
2022/04/29 21:04:00;;;;;;;;;;;10.70;1.00;;;;;;10234396;28;84829;-44
2022/04/29 21:09:02;;;;;;;;;;;10.40;1.00;;;;;;10228328;28;87551;-47
2022/04/29 21:14:03;;;;;;;;;;;10.30;1.00;;;;;;10249589;28;84922;-46
2022/04/29 21:19:05;;;;;;;;;;;10.40;1.00;;;;;;10248928;28;84687;-47
2022/04/29 21:24:05;;;;;;;;;;;10.30;1.00;;;;;;10240853;28;84870;-45
2022/04/29 21:34:25;;;;;;;;;;;10.10;1.00;;;;;;10250499;28;84285;-44
2022/04/29 21:39:26;;;;;;;;;;;10.00;1.00;;;;;;10248933;28;84116;-48
2022/04/29 21:44:26;;;;;;;;;;;10.00;1.00;;;;;;10249048;28;84947;-48
2022/04/29 21:49:27;;;;;;;;;;;9.90;1.00;;;;;;10249763;28;84895;-47
2022/04/29 21:54:28;;;;;;;;;;;9.90;1.00;;;;;;10249929;28;84826;-45
2022/04/29 21:59:28;;;;;;;;;;;9.80;1.00;;;;;;10247941;28;84178;-47
2022/04/29 22:04:29;;;;;;;;;;;9.80;1.00;;;;;;10247770;28;86022;-46
2022/04/29 22:09:29;;;;;;;;;;;9.80;1.00;;;;;;10248350;28;84364;-46
2022/04/29 22:14:30;;;;;;;;;;;9.80;1.00;;;;;;10247235;28;84732;-46
2022/04/29 22:19:31;;;;;;;;;;;9.90;1.00;;;;;;10246180;28;84172;-46
2022/04/29 22:24:31;;;;;;;;;;;9.90;1.00;;;;;;10212605;28;84246;-44
2022/04/29 22:29:32;;;;;;;;;;;9.60;1.00;;;;;;10207025;28;84808;-45
2022/04/29 22:34:33;;;;;;;;;;;9.70;1.00;;;;;;10211486;28;85896;-44
2022/04/29 22:39:34;;;;;;;;;;;9.60;1.00;;;;;;10244272;28;84866;-45
2022/04/29 22:44:34;;;;;;;;;;;9.50;1.00;;;;;;10248177;28;84179;-45
2022/04/29 22:49:35;;;;;;;;;;;9.50;1.00;;;;;;10246553;28;84657;-45
2022/04/29 22:54:36;;;;;;;;;;;9.40;1.00;;;;;;10213463;28;84377;-46
2022/04/29 22:59:37;;;;;;;;;;;9.40;1.00;;;;;;10232851;28;84863;-45
2022/04/29 23:04:38;;;;;;;;;;;9.30;1.00;;;;;;10247790;28;84818;-46
2022/04/29 23:09:38;;;;;;;;;;;9.40;1.00;;;;;;10221808;28;85194;-45
2022/04/29 23:14:39;;;;;;;;;;;9.40;1.00;;;;;;10207671;28;84934;-44
2022/04/29 23:19:39;;;;;;;;;;;9.40;1.00;;;;;;10206032;28;84910;-45
2022/04/29 23:24:40;;;;;;;;;;;9.30;1.00;;;;;;10232168;28;84207;-43
2022/04/29 23:29:40;;;;;;;;;;;9.30;1.00;;;;;;10244966;28;84945;-47
2022/04/29 23:34:41;;;;;;;;;;;9.20;1.00;;;;;;10246697;28;85741;-48
2022/04/29 23:39:43;;;;;;;;;;;9.10;1.00;;;;;;10237529;28;84874;-46
2022/04/29 23:44:44;;;;;;;;;;;9.10;1.00;;;;;;10205875;28;85395;-43
2022/04/29 23:49:44;;;;;;;;;;;9.00;1.00;;;;;;10204917;28;86402;-47
2022/04/29 23:54:45;;;;;;;;;;;8.90;1.00;;;;;;10205984;28;84167;-47
2022/04/29 23:59:46;;;;;;;;;;;8.80;1.00;;;;;;10204661;28;84130;-45
